Time;durP1;ratioP1;P1;durP2;ratioP2;P2;SDS_P1;SDS_P2;PMS_P1;PMS_P2;Temp;Humidity;BMP_temperature;BMP_pressure;BME280_temperature;BME280_humidity;BME280_pressure;Samples;Min_cycle;Max_cycle;Signal;HPM_P1;HPM_P2
2021/07/01 00:00:53;;;;;;;3.95;2.67;;;;;20.70;101296.00;;;;5109109;28;20552;-81
2021/07/01 00:03:20;;;;;;;6.65;3.75;;;;;20.70;101294.00;;;;5106888;28;20210;-80
2021/07/01 00:05:48;;;;;;;6.25;3.13;;;;;20.70;101299.00;;;;5101963;28;20194;-80
2021/07/01 00:08:16;;;;;;;5.43;3.38;;;;;20.70;101296.00;;;;5108974;28;20206;-80
2021/07/01 00:10:43;;;;;;;4.18;2.55;;;;;20.70;101293.00;;;;5107717;28;20205;-80
2021/07/01 00:13:10;;;;;;;4.93;3.20;;;;;20.70;101293.00;;;;5108002;28;20570;-81
2021/07/01 00:15:39;;;;;;;7.57;3.67;;;;;20.70;101297.00;;;;5107442;28;20228;-80
2021/07/01 00:18:07;;;;;;;4.75;2.65;;;;;20.70;101294.00;;;;5109075;28;20563;-80
2021/07/01 00:20:35;;;;;;;6.45;3.10;;;;;20.70;101295.00;;;;5108811;28;20209;-81
2021/07/01 00:23:04;;;;;;;7.35;2.90;;;;;20.60;101294.00;;;;5094697;28;20197;-81
2021/07/01 00:25:31;;;;;;;7.55;3.88;;;;;20.60;101301.00;;;;5107739;28;20194;-81
2021/07/01 00:27:59;;;;;;;3.97;2.80;;;;;20.60;101301.00;;;;5108662;28;20204;-81
2021/07/01 00:30:27;;;;;;;8.18;3.05;;;;;20.60;101298.00;;;;5107546;28;20282;-82
2021/07/01 00:32:55;;;;;;;7.13;2.72;;;;;20.50;101297.00;;;;5090211;28;20818;-80
2021/07/01 00:35:22;;;;;;;4.43;2.45;;;;;20.50;101295.00;;;;5092587;28;20769;-81
2021/07/01 00:37:50;;;;;;;4.32;2.42;;;;;20.50;101295.00;;;;5108184;28;20229;-82
2021/07/01 00:40:19;;;;;;;6.43;2.72;;;;;20.40;101294.00;;;;5108299;28;20570;-81
2021/07/01 00:42:46;;;;;;;7.30;2.33;;;;;20.50;101303.00;;;;5107178;28;20665;-82
2021/07/01 00:45:14;;;;;;;5.90;2.75;;;;;20.50;101301.00;;;;5108508;28;20197;-81
2021/07/01 00:47:42;;;;;;;3.55;2.55;;;;;20.40;101300.00;;;;5108002;28;20220;-81
2021/07/01 00:50:11;;;;;;;3.40;2.30;;;;;20.40;101300.00;;;;5097860;28;20283;-82
2021/07/01 00:52:39;;;;;;;5.53;2.25;;;;;20.40;101304.00;;;;5104164;28;20190;-81
2021/07/01 00:55:08;;;;;;;5.65;2.50;;;;;20.40;101299.00;;;;5108984;28;20228;-81
2021/07/01 00:57:37;;;;;;;5.13;2.25;;;;;20.40;101301.00;;;;5106850;28;20193;-81
2021/07/01 01:00:13;;;;;;;5.55;2.33;;;;;20.40;101306.00;;;;5099179;28;20210;-81
2021/07/01 01:02:40;;;;;;;4.75;2.45;;;;;20.30;101301.00;;;;5106942;28;20626;-81
2021/07/01 01:05:08;;;;;;;6.45;2.70;;;;;20.30;101305.00;;;;5108573;28;20194;-81
2021/07/01 01:07:35;;;;;;;4.90;2.33;;;;;20.30;101301.00;;;;5108082;28;20209;-82
2021/07/01 01:10:03;;;;;;;5.47;2.13;;;;;20.30;101295.00;;;;5108512;28;20194;-81
2021/07/01 01:12:31;;;;;;;4.35;2.03;;;;;20.30;101292.00;;;;5091855;28;20194;-81
2021/07/01 01:14:59;;;;;;;8.98;2.40;;;;;20.20;101292.00;;;;5107576;28;20218;-80
2021/07/01 01:17:27;;;;;;;5.18;2.60;;;;;20.20;101289.00;;;;5108258;28;20186;-81
2021/07/01 01:19:54;;;;;;;4.97;3.00;;;;;20.20;101289.00;;;;5106418;28;20205;-81
2021/07/01 01:22:24;;;;;;;4.93;2.45;;;;;20.20;101280.00;;;;5093769;28;20198;-82
2021/07/01 01:24:52;;;;;;;6.07;2.47;;;;;20.20;101285.00;;;;5109096;28;20202;-81
2021/07/01 01:27:21;;;;;;;3.88;2.25;;;;;20.20;101288.00;;;;5108009;28;20233;-80
2021/07/01 01:29:48;;;;;;;6.65;2.47;;;;;20.20;101285.00;;;;5107853;28;20194;-83
2021/07/01 01:32:16;;;;;;;3.88;2.17;;;;;20.20;101280.00;;;;5108386;28;20212;-81
2021/07/01 01:34:43;;;;;;;8.32;3.35;;;;;20.20;101288.00;;;;5107378;28;20232;-81
2021/07/01 01:37:11;;;;;;;4.78;2.55;;;;;20.20;101289.00;;;;5107919;28;20220;-81
2021/07/01 01:39:40;;;;;;;7.57;2.72;;;;;20.10;101288.00;;;;5109377;28;20221;-81
2021/07/01 01:42:08;;;;;;;4.63;2.83;;;;;20.20;101283.00;;;;5112151;28;20205;-81
2021/07/01 01:44:35;;;;;;;5.60;2.97;;;;;20.20;101284.00;;;;5111249;28;20193;-82
2021/07/01 01:47:02;;;;;;;7.30;3.08;;;;;20.20;101279.00;;;;5110773;28;20193;-81
2021/07/01 01:49:29;;;;;;;3.75;2.45;;;;;20.20;101284.00;;;;5106031;28;20186;-81
2021/07/01 01:51:57;;;;;;;8.88;2.58;;;;;20.20;101283.00;;;;5106505;28;20196;-81
2021/07/01 01:54:24;;;;;;;4.78;3.20;;;;;20.20;101284.00;;;;5110403;28;20186;-81
2021/07/01 01:56:53;;;;;;;5.95;3.47;;;;;20.20;101286.00;;;;5111086;28;20221;-81
2021/07/01 01:59:20;;;;;;;4.88;2.67;;;;;20.20;101279.00;;;;5110180;28;20213;-80
2021/07/01 02:01:47;;;;;;;5.45;2.78;;;;;20.20;101290.00;;;;5110924;28;20205;-80
2021/07/01 02:04:14;;;;;;;4.78;2.78;;;;;20.20;101288.00;;;;5111172;28;20691;-81
2021/07/01 02:06:41;;;;;;;5.88;2.92;;;;;20.20;101287.00;;;;5111386;28;20855;-80
2021/07/01 02:09:09;;;;;;;5.93;3.20;;;;;20.20;101284.00;;;;5110626;28;20190;-81
2021/07/01 02:11:36;;;;;;;7.15;2.78;;;;;20.20;101285.00;;;;5109539;28;20647;-80
2021/07/01 02:14:04;;;;;;;4.97;2.55;;;;;20.20;101282.00;;;;5111567;28;20201;-81
2021/07/01 02:16:32;;;;;;;4.93;2.28;;;;;20.20;101290.00;;;;5110793;28;20221;-79
2021/07/01 02:18:59;;;;;;;4.82;2.92;;;;;20.20;101280.00;;;;5110205;28;20189;-80
2021/07/01 02:21:26;;;;;;;5.03;2.92;;;;;20.20;101277.00;;;;5111008;28;20202;-81
2021/07/01 02:23:53;;;;;;;7.65;2.60;;;;;20.20;101286.00;;;;5110930;28;20201;-80
2021/07/01 02:26:21;;;;;;;11.70;2.80;;;;;20.20;101289.00;;;;5105262;28;20194;-80
2021/07/01 02:28:48;;;;;;;4.32;2.60;;;;;20.20;101289.00;;;;5108736;28;20198;-81
2021/07/01 02:31:16;;;;;;;4.78;2.80;;;;;20.20;101283.00;;;;5110780;28;20209;-81
2021/07/01 02:33:44;;;;;;;4.38;2.58;;;;;20.20;101281.00;;;;5110173;28;20197;-81
2021/07/01 02:36:11;;;;;;;8.63;3.00;;;;;20.20;101281.00;;;;5110522;28;20230;-81
2021/07/01 02:38:38;;;;;;;6.65;2.58;;;;;20.20;101284.00;;;;5110174;28;20232;-81
2021/07/01 02:41:05;;;;;;;7.25;3.00;;;;;20.20;101279.00;;;;5110787;28;20190;-80
2021/07/01 02:43:33;;;;;;;3.88;2.42;;;;;20.20;101279.00;;;;5110398;28;20873;-80
2021/07/01 02:46:00;;;;;;;5.00;2.90;;;;;20.20;101276.00;;;;5109233;28;20752;-81
2021/07/01 02:48:28;;;;;;;4.88;2.53;;;;;20.20;101276.00;;;;5109459;28;20201;-79
2021/07/01 02:50:56;;;;;;;5.43;2.40;;;;;20.20;101276.00;;;;5106870;28;20202;-80
2021/07/01 02:53:23;;;;;;;5.53;3.13;;;;;20.10;101282.00;;;;5109808;28;20205;-81
2021/07/01 02:55:50;;;;;;;4.93;2.33;;;;;20.10;101275.00;;;;5109102;28;20221;-80
2021/07/01 02:58:17;;;;;;;3.78;2.53;;;;;20.10;101275.00;;;;5109166;28;20194;-80
2021/07/01 03:00:44;;;;;;;7.07;2.88;;;;;20.10;101282.00;;;;5108227;28;20567;-81
2021/07/01 03:03:12;;;;;;;7.68;2.28;;;;;20.10;101278.00;;;;5109499;28;20208;-80
2021/07/01 03:05:40;;;;;;;6.07;2.30;;;;;20.10;101275.00;;;;5109385;28;20196;-80
2021/07/01 03:08:07;;;;;;;6.95;3.10;;;;;20.10;101275.00;;;;5109308;28;20651;-80
2021/07/01 03:10:35;;;;;;;5.40;2.55;;;;;20.10;101276.00;;;;5109733;28;20212;-80
2021/07/01 03:13:02;;;;;;;4.05;2.40;;;;;20.10;101277.00;;;;5109558;28;20205;-81
2021/07/01 03:15:29;;;;;;;4.38;2.65;;;;;20.10;101276.00;;;;5109364;28;20221;-80
2021/07/01 03:17:56;;;;;;;6.28;2.92;;;;;20.10;101275.00;;;;5093315;28;20190;-80
2021/07/01 03:20:24;;;;;;;6.03;3.05;;;;;20.10;101275.00;;;;5108975;28;20201;-80
2021/07/01 03:22:53;;;;;;;4.10;2.22;;;;;20.10;101276.00;;;;5108486;28;20197;-81
2021/07/01 03:25:20;;;;;;;5.72;2.33;;;;;20.10;101274.00;;;;5109792;28;20201;-80
2021/07/01 03:27:47;;;;;;;5.53;2.47;;;;;20.10;101273.00;;;;5109013;28;20198;-80
2021/07/01 03:30:15;;;;;;;4.10;2.90;;;;;20.10;101275.00;;;;5108329;28;20189;-80
2021/07/01 03:32:44;;;;;;;5.00;2.50;;;;;20.10;101278.00;;;;5098007;28;20209;-80
2021/07/01 03:35:11;;;;;;;3.38;2.60;;;;;20.10;101273.00;;;;5100534;28;20198;-81
2021/07/01 03:37:39;;;;;;;5.65;2.55;;;;;20.10;101286.00;;;;5108842;28;20286;-81
2021/07/01 03:40:09;;;;;;;5.03;2.38;;;;;20.10;101280.00;;;;5109309;28;20220;-80
2021/07/01 03:42:37;;;;;;;3.45;2.45;;;;;20.10;101284.00;;;;5107890;28;20573;-81
2021/07/01 03:45:05;;;;;;;4.10;2.47;;;;;20.10;101288.00;;;;5109445;28;20213;-81
2021/07/01 03:47:33;;;;;;;9.57;3.33;;;;;20.10;101285.00;;;;5089676;28;20601;-80
2021/07/01 03:50:00;;;;;;;4.90;2.42;;;;;20.10;101284.00;;;;5108113;28;20233;-80
2021/07/01 03:52:27;;;;;;;5.18;2.78;;;;;20.10;101287.00;;;;5107705;28;20201;-81
2021/07/01 03:54:54;;;;;;;7.35;3.00;;;;;20.10;101286.00;;;;5108613;28;20250;-81
2021/07/01 03:57:23;;;;;;;5.75;2.58;;;;;20.00;101288.00;;;;5108334;28;20699;-80
2021/07/01 03:59:50;;;;;;;4.43;2.55;;;;;20.10;101289.00;;;;5095455;28;20700;-81
2021/07/01 04:02:18;;;;;;;3.95;2.40;;;;;20.10;101288.00;;;;5108165;28;20194;-80
2021/07/01 04:04:45;;;;;;;5.50;3.10;;;;;20.00;101289.00;;;;5108288;28;20253;-81
2021/07/01 04:07:12;;;;;;;4.78;3.13;;;;;20.10;101287.00;;;;5108390;28;20664;-80
2021/07/01 04:09:39;;;;;;;6.25;2.75;;;;;20.10;101290.00;;;;5107218;28;20194;-81
2021/07/01 04:12:08;;;;;;;6.45;2.95;;;;;20.00;101291.00;;;;5095003;28;20199;-81
2021/07/01 04:14:37;;;;;;;6.97;3.05;;;;;20.00;101293.00;;;;5093683;28;20380;-81
2021/07/01 04:17:05;;;;;;;6.53;3.47;;;;;20.00;101285.00;;;;5101376;28;20220;-81
2021/07/01 04:19:32;;;;;;;5.93;2.83;;;;;20.00;101289.00;;;;5102730;28;20664;-81
2021/07/01 04:21:59;;;;;;;5.97;2.85;;;;;20.00;101290.00;;;;5107431;28;20196;-81
2021/07/01 04:24:26;;;;;;;5.65;2.92;;;;;20.00;101290.00;;;;5108157;28;20189;-81
2021/07/01 04:26:54;;;;;;;7.57;2.97;;;;;20.00;101290.00;;;;5108293;28;20206;-82
2021/07/01 04:29:22;;;;;;;8.75;2.72;;;;;20.00;101294.00;;;;5107918;28;20193;-81
2021/07/01 04:31:51;;;;;;;7.25;3.00;;;;;20.00;101291.00;;;;5108137;28;20202;-81
2021/07/01 04:34:18;;;;;;;5.88;2.92;;;;;20.00;101287.00;;;;5107303;28;20190;-81
2021/07/01 04:36:45;;;;;;;5.68;3.17;;;;;20.00;101293.00;;;;5107826;28;20228;-81
2021/07/01 04:39:12;;;;;;;4.68;2.35;;;;;20.00;101292.00;;;;5107916;28;20222;-80
2021/07/01 04:41:40;;;;;;;3.72;2.47;;;;;20.00;101301.00;;;;5107655;28;20193;-81
2021/07/01 04:44:08;;;;;;;5.30;2.72;;;;;20.00;101293.00;;;;5104730;28;20206;-81
2021/07/01 04:46:35;;;;;;;4.30;2.33;;;;;20.00;101297.00;;;;5096259;28;20198;-81
2021/07/01 04:49:04;;;;;;;4.32;2.38;;;;;20.00;101296.00;;;;5098271;28;20191;-81
2021/07/01 04:51:31;;;;;;;5.63;2.35;;;;;20.10;101295.00;;;;5100143;28;20198;-81
2021/07/01 04:53:59;;;;;;;5.65;3.13;;;;;20.10;101297.00;;;;5099550;28;20205;-81
2021/07/01 04:56:42;;;;;;;5.50;3.15;;;;;20.10;101297.00;;;;5091951;28;20225;-81
2021/07/01 04:59:10;;;;;;;5.18;2.58;;;;;20.00;101295.00;;;;5088484;28;20482;-81
2021/07/01 05:01:38;;;;;;;4.50;2.53;;;;;20.00;101294.00;;;;5090047;28;20243;-81
2021/07/01 05:04:08;;;;;;;4.65;2.47;;;;;20.00;101296.00;;;;5090817;28;20225;-82
2021/07/01 05:06:35;;;;;;;4.15;2.13;;;;;20.00;101298.00;;;;5100533;28;20226;-82
2021/07/01 05:09:02;;;;;;;4.75;2.25;;;;;20.00;101299.00;;;;5093362;28;20191;-81
2021/07/01 05:11:30;;;;;;;4.50;2.75;;;;;20.00;101297.00;;;;5092125;28;20225;-81
2021/07/01 05:13:58;;;;;;;5.05;2.47;;;;;20.00;101291.00;;;;5098590;28;20230;-81
2021/07/01 05:16:27;;;;;;;5.72;2.58;;;;;20.00;101292.00;;;;5101730;28;20225;-81
2021/07/01 05:18:54;;;;;;;3.00;2.00;;;;;20.00;101285.00;;;;5104625;28;20197;-81
2021/07/01 05:21:23;;;;;;;5.28;2.08;;;;;20.00;101289.00;;;;5098060;28;20195;-81
2021/07/01 05:23:50;;;;;;;4.85;2.50;;;;;20.00;101290.00;;;;5103371;28;20198;-79
2021/07/01 05:26:19;;;;;;;4.22;2.30;;;;;20.00;101290.00;;;;5106497;28;20576;-82
2021/07/01 05:28:46;;;;;;;4.10;2.47;;;;;20.00;101296.00;;;;5101169;28;20206;-81
2021/07/01 05:31:14;;;;;;;4.32;1.92;;;;;20.00;101295.00;;;;5110827;28;20758;-81
2021/07/01 05:33:41;;;;;;;5.38;2.55;;;;;20.00;101286.00;;;;5102291;28;20205;-81
2021/07/01 05:36:09;;;;;;;5.53;2.72;;;;;20.00;101288.00;;;;5110747;28;20217;-81
2021/07/01 05:38:38;;;;;;;4.05;2.28;;;;;20.00;101288.00;;;;5111342;28;20225;-81
2021/07/01 05:41:05;;;;;;;4.13;2.35;;;;;20.00;101291.00;;;;5111433;28;20208;-81
2021/07/01 05:43:32;;;;;;;7.75;2.85;;;;;20.10;101289.00;;;;5110111;28;20201;-80
2021/07/01 05:46:00;;;;;;;4.35;2.60;;;;;20.10;101298.00;;;;5104561;28;20194;-82
2021/07/01 05:48:28;;;;;;;5.20;3.15;;;;;20.10;101294.00;;;;5110643;28;20193;-82
2021/07/01 05:51:00;;;;;;;3.97;2.38;;;;;20.10;101287.00;;;;5111949;28;20201;-81
2021/07/01 05:53:30;;;;;;;5.15;2.50;;;;;20.10;101293.00;;;;5110707;28;20715;-81
2021/07/01 05:55:58;;;;;;;5.00;2.53;;;;;20.10;101291.00;;;;5110842;28;20275;-80
2021/07/01 05:58:26;;;;;;;5.95;2.50;;;;;20.10;101285.00;;;;5110809;28;20185;-81
2021/07/01 06:00:53;;;;;;;5.68;2.70;;;;;20.10;101287.00;;;;5109881;28;20283;-81
2021/07/01 06:03:20;;;;;;;4.82;2.22;;;;;20.20;101294.00;;;;5110669;28;20201;-82
2021/07/01 06:05:55;;;;;;;5.25;2.97;;;;;20.10;101294.00;;;;5110845;28;20205;-81
2021/07/01 06:08:23;;;;;;;4.93;2.97;;;;;20.20;101290.00;;;;5108888;28;20285;-81
2021/07/01 06:10:54;;;;;;;3.58;2.35;;;;;20.20;101288.00;;;;5109412;27;20232;-83
2021/07/01 06:13:23;;;;;;;3.80;2.30;;;;;20.20;101289.00;;;;5110484;28;20208;-83
2021/07/01 06:15:53;;;;;;;4.85;2.35;;;;;20.20;101292.00;;;;5110302;28;20200;-82
2021/07/01 06:18:21;;;;;;;3.53;2.53;;;;;20.20;101293.00;;;;5110710;28;20221;-82
2021/07/01 06:20:49;;;;;;;5.15;2.58;;;;;20.30;101303.00;;;;5108637;28;20675;-83
2021/07/01 06:23:18;;;;;;;6.07;2.35;;;;;20.30;101301.00;;;;5110592;28;20201;-84
2021/07/01 06:25:48;;;;;;;3.92;2.28;;;;;20.30;101296.00;;;;5110090;28;20198;-84
2021/07/01 06:28:15;;;;;;;7.25;3.47;;;;;20.30;101303.00;;;;5111412;28;20282;-84
2021/07/01 06:30:46;;;;;;;4.47;2.25;;;;;20.30;101298.00;;;;5110732;28;20212;-83
2021/07/01 06:33:14;;;;;;;4.63;2.88;;;;;20.30;101295.00;;;;5110832;27;20253;-84
2021/07/01 06:35:48;;;;;;;5.78;2.83;;;;;20.30;101295.00;;;;5110520;28;20376;-83
2021/07/01 06:38:19;;;;;;;6.40;2.75;;;;;20.30;101301.00;;;;5110613;28;20257;-81
2021/07/01 06:40:49;;;;;;;5.93;3.20;;;;;20.30;101306.00;;;;5110273;28;20214;-81
2021/07/01 06:43:19;;;;;;;3.28;2.65;;;;;20.40;101303.00;;;;5109527;28;20209;-82
2021/07/01 06:45:50;;;;;;;4.38;2.67;;;;;20.40;101304.00;;;;5109275;28;20213;-82
2021/07/01 06:48:17;;;;;;;3.40;2.63;;;;;20.40;101303.00;;;;5110685;28;20197;-81
2021/07/01 06:50:45;;;;;;;4.13;2.85;;;;;20.40;101299.00;;;;5110131;28;20198;-82
2021/07/01 06:53:14;;;;;;;5.32;2.47;;;;;20.40;101300.00;;;;5109474;28;20194;-83
2021/07/01 06:55:43;;;;;;;5.50;2.67;;;;;20.40;101300.00;;;;5109890;28;20209;-83
2021/07/01 06:58:11;;;;;;;4.55;2.60;;;;;20.40;101299.00;;;;5109383;28;20232;-82
2021/07/01 07:00:38;;;;;;;6.72;2.97;;;;;20.50;101299.00;;;;5096855;28;20638;-83
2021/07/01 07:03:07;;;;;;;6.47;2.60;;;;;20.50;101307.00;;;;5089843;28;20252;-82
2021/07/01 07:05:34;;;;;;;5.30;2.88;;;;;20.50;101309.00;;;;5090004;28;20199;-83
2021/07/01 07:08:05;;;;;;;3.80;2.53;;;;;20.50;101308.00;;;;5089982;28;20202;-83
2021/07/01 07:10:32;;;;;;;5.35;2.53;;;;;20.60;101306.00;;;;5089746;28;20250;-83
2021/07/01 07:12:59;;;;;;;4.25;2.40;;;;;20.60;101306.00;;;;5090182;28;20209;-82
2021/07/01 07:15:28;;;;;;;7.53;2.95;;;;;20.50;101313.00;;;;5089404;28;20717;-82
2021/07/01 07:18:01;;;;;;;5.25;3.13;;;;;20.60;101306.00;;;;5102999;28;20233;-83
2021/07/01 07:20:31;;;;;;;5.70;2.72;;;;;20.60;101309.00;;;;5110150;28;20193;-82
2021/07/01 07:22:59;;;;;;;5.75;3.33;;;;;20.60;101310.00;;;;5110333;28;20287;-83
2021/07/01 07:25:27;;;;;;;4.75;2.70;;;;;20.60;101311.00;;;;5108918;28;20693;-81
2021/07/01 07:28:04;;;;;;;7.13;2.80;;;;;20.60;101314.00;;;;5110400;28;20202;-83
2021/07/01 07:30:31;;;;;;;4.93;2.92;;;;;20.70;101320.00;;;;5109903;28;20228;-83
2021/07/01 07:33:02;;;;;;;4.80;2.80;;;;;20.70;101315.00;;;;5110363;28;20206;-83
2021/07/01 07:35:30;;;;;;;9.32;3.70;;;;;20.70;101318.00;;;;5108958;28;20197;-83
2021/07/01 07:37:58;;;;;;;4.60;2.38;;;;;20.70;101322.00;;;;5108922;28;20237;-82
2021/07/01 07:40:26;;;;;;;7.90;3.88;;;;;20.80;101317.00;;;;5109942;28;20579;-83
2021/07/01 07:42:53;;;;;;;6.10;3.22;;;;;20.80;101325.00;;;;5110367;28;20201;-82
2021/07/01 07:45:21;;;;;;;5.43;3.72;;;;;20.80;101320.00;;;;5092999;28;20214;-82
2021/07/01 07:47:48;;;;;;;7.43;3.33;;;;;20.90;101314.00;;;;5089385;28;20206;-83
2021/07/01 07:50:15;;;;;;;6.85;3.58;;;;;20.90;101310.00;;;;5089448;28;20202;-83
2021/07/01 07:52:50;;;;;;;5.78;3.55;;;;;20.90;101314.00;;;;5107619;28;20209;-82
2021/07/01 07:55:21;;;;;;;5.57;3.33;;;;;20.90;101319.00;;;;5109841;28;20201;-83
2021/07/01 07:57:53;;;;;;;8.05;3.88;;;;;21.00;101313.00;;;;5109499;28;20225;-83
2021/07/01 08:00:21;;;;;;;7.80;3.53;;;;;21.00;101315.00;;;;5090884;28;20222;-83
2021/07/01 08:02:51;;;;;;;4.65;2.85;;;;;21.10;101319.00;;;;5088429;28;20690;-83
2021/07/01 08:05:21;;;;;;;5.18;3.28;;;;;21.10;101315.00;;;;5089098;28;20691;-83
2021/07/01 08:07:51;;;;;;;5.03;3.30;;;;;21.10;101318.00;;;;5091536;28;20686;-82
2021/07/01 08:10:20;;;;;;;7.50;3.47;;;;;21.20;101322.00;;;;5109208;28;20216;-82
2021/07/01 08:12:51;;;;;;;6.80;3.90;;;;;21.20;101322.00;;;;5109600;28;20210;-83
2021/07/01 08:15:20;;;;;;;5.60;4.05;;;;;21.20;101324.00;;;;5108593;28;20205;-82
2021/07/01 08:17:49;;;;;;;6.80;3.47;;;;;21.20;101326.00;;;;5108912;28;20225;-82
2021/07/01 08:20:19;;;;;;;6.70;3.67;;;;;21.20;101323.00;;;;5109411;28;20579;-82
2021/07/01 08:22:49;;;;;;;7.63;3.85;;;;;21.20;101320.00;;;;5108507;28;20202;-82
2021/07/01 08:25:18;;;;;;;9.50;4.15;;;;;21.30;101317.00;;;;5109765;28;20650;-82
2021/07/01 08:27:46;;;;;;;10.98;4.45;;;;;21.30;101331.00;;;;5108882;28;20507;-82
2021/07/01 08:30:16;;;;;;;8.88;4.20;;;;;21.30;101329.00;;;;5109334;28;20208;-83
2021/07/01 08:32:45;;;;;;;9.50;4.13;;;;;21.30;101325.00;;;;5108733;28;20201;-82
2021/07/01 08:35:14;;;;;;;10.43;4.25;;;;;21.30;101330.00;;;;5109005;28;20208;-83
2021/07/01 08:37:46;;;;;;;9.15;4.05;;;;;21.30;101330.00;;;;5108021;28;20275;-82
2021/07/01 08:40:16;;;;;;;6.97;5.05;;;;;21.30;101332.00;;;;5109019;28;20205;-82
2021/07/01 08:42:44;;;;;;;6.95;3.72;;;;;21.40;101327.00;;;;5108434;28;20209;-82
2021/07/01 08:45:13;;;;;;;9.52;4.55;;;;;21.40;101331.00;;;;5109439;28;20213;-82
2021/07/01 08:47:42;;;;;;;7.60;3.22;;;;;21.40;101336.00;;;;5108478;28;20201;-82
2021/07/01 08:50:11;;;;;;;10.30;3.97;;;;;21.40;101336.00;;;;5113138;28;20292;-83
2021/07/01 08:52:56;;;;;;;9.15;4.35;;;;;21.30;101331.00;;;;5113073;28;20201;-83
2021/07/01 08:55:28;;;;;;;9.70;3.83;;;;;21.40;101337.00;;;;5112858;28;20623;-82
2021/07/01 08:57:57;;;;;;;10.27;4.35;;;;;21.40;101339.00;;;;5113179;28;20252;-82
2021/07/01 09:00:25;;;;;;;11.02;4.20;;;;;21.40;101339.00;;;;5109900;28;20769;-82
2021/07/01 09:03:03;;;;;;;9.98;4.28;;;;;21.40;101343.00;;;;5113203;28;20209;-82
2021/07/01 09:05:32;;;;;;;6.47;3.80;;;;;21.50;101339.00;;;;5112554;28;20201;-83
2021/07/01 09:08:01;;;;;;;7.35;4.10;;;;;21.50;101336.00;;;;5112821;28;20258;-82
2021/07/01 09:10:33;;;;;;;7.82;3.88;;;;;21.50;101340.00;;;;5112077;28;20571;-83
2021/07/01 09:13:03;;;;;;;9.60;4.10;;;;;21.50;101336.00;;;;5112377;28;20726;-82
2021/07/01 09:15:31;;;;;;;8.05;3.63;;;;;21.50;101336.00;;;;5112444;28;20288;-82
2021/07/01 09:17:59;;;;;;;7.50;3.70;;;;;21.60;101340.00;;;;5112418;28;20233;-83
2021/07/01 09:20:33;;;;;;;8.55;3.67;;;;;21.50;101334.00;;;;5111777;28;20206;-82
2021/07/01 09:23:01;;;;;;;8.05;3.55;;;;;21.60;101337.00;;;;5112527;28;20205;-82
2021/07/01 09:25:30;;;;;;;7.80;4.43;;;;;21.60;101336.00;;;;5112352;28;20201;-82
2021/07/01 09:27:59;;;;;;;9.77;3.80;;;;;21.60;101341.00;;;;5113020;28;20220;-82
2021/07/01 09:30:29;;;;;;;6.05;3.42;;;;;21.60;101336.00;;;;5111830;28;20585;-82
2021/07/01 09:32:58;;;;;;;9.75;3.92;;;;;21.70;101336.00;;;;5112567;28;20671;-82
2021/07/01 09:35:27;;;;;;;5.85;4.10;;;;;21.70;101341.00;;;;5112090;28;20664;-82
2021/07/01 09:37:56;;;;;;;7.18;3.80;;;;;21.70;101342.00;;;;5111739;28;20240;-82
2021/07/01 09:40:24;;;;;;;10.07;4.55;;;;;21.70;101346.00;;;;5111623;27;20205;-83
2021/07/01 09:42:56;;;;;;;10.68;3.70;;;;;21.70;101342.00;;;;5112551;28;20197;-82
2021/07/01 09:45:25;;;;;;;4.78;3.15;;;;;21.80;101343.00;;;;5112166;28;20200;-83
2021/07/01 09:47:55;;;;;;;9.73;4.97;;;;;21.80;101343.00;;;;5112226;28;20288;-82
2021/07/01 09:50:25;;;;;;;7.25;3.65;;;;;21.90;101350.00;;;;5112221;28;20197;-82
2021/07/01 09:52:56;;;;;;;6.30;3.65;;;;;21.90;101347.00;;;;5111627;28;20203;-81
2021/07/01 09:55:27;;;;;;;7.72;3.85;;;;;21.90;101350.00;;;;5112007;28;20193;-82
2021/07/01 09:58:00;;;;;;;9.10;4.03;;;;;21.90;101358.00;;;;5112180;28;20302;-81
2021/07/01 10:00:30;;;;;;;9.13;3.70;;;;;22.00;101349.00;;;;5104733;28;20217;-82
2021/07/01 10:03:05;;;;;;;10.52;3.83;;;;;22.00;101348.00;;;;5091283;28;20281;-82
2021/07/01 10:05:33;;;;;;;6.75;4.03;;;;;22.00;101356.00;;;;5106227;28;20193;-81
2021/07/01 10:08:01;;;;;;;8.65;3.75;;;;;22.00;101351.00;;;;5110755;28;20212;-82
2021/07/01 10:10:28;;;;;;;6.07;3.63;;;;;22.00;101362.00;;;;5110554;28;20193;-82
2021/07/01 10:12:58;;;;;;;7.35;3.40;;;;;22.00;101356.00;;;;5111089;28;20193;-82
2021/07/01 10:15:30;;;;;;;5.70;3.15;;;;;21.90;101366.00;;;;5110688;28;20561;-82
2021/07/01 10:18:10;;;;;;;7.72;2.90;;;;;21.80;101367.00;;;;5089650;28;20225;-81
2021/07/01 10:20:39;;;;;;;6.50;3.85;;;;;21.90;101367.00;;;;5090016;28;20194;-82
2021/07/01 10:23:19;;;;;;;5.75;3.35;;;;;21.80;101366.00;;;;5090162;28;20563;-82
2021/07/01 10:25:47;;;;;;;7.50;3.53;;;;;21.90;101368.00;;;;5109548;28;20300;-82
2021/07/01 10:28:19;;;;;;;8.63;3.08;;;;;21.90;101371.00;;;;5110592;28;20192;-82
2021/07/01 10:30:57;;;;;;;6.38;3.17;;;;;21.80;101364.00;;;;5110368;28;20649;-82
2021/07/01 10:33:25;;;;;;;6.35;2.63;;;;;21.90;101367.00;;;;5110109;28;20193;-81
2021/07/01 10:35:56;;;;;;;5.60;2.92;;;;;21.90;101363.00;;;;5110839;28;20201;-82
2021/07/01 10:38:23;;;;;;;5.70;4.03;;;;;21.90;101376.00;;;;5109966;28;20249;-81
2021/07/01 10:40:53;;;;;;;7.80;3.17;;;;;21.90;101373.00;;;;5110196;28;20217;-81
2021/07/01 10:43:38;;;;;;;4.55;3.03;;;;;21.90;101376.00;;;;5110910;28;20198;-82
2021/07/01 10:46:05;;;;;;;7.85;3.33;;;;;22.00;101373.00;;;;5110927;28;20201;-82
2021/07/01 10:48:32;;;;;;;9.73;3.67;;;;;22.00;101366.00;;;;5110261;28;20572;-81
2021/07/01 10:51:08;;;;;;;6.07;2.97;;;;;22.00;101372.00;;;;5110697;28;20190;-81
2021/07/01 10:53:37;;;;;;;5.35;2.80;;;;;22.00;101375.00;;;;5110106;28;20196;-81
2021/07/01 10:56:08;;;;;;;6.28;2.80;;;;;22.00;101371.00;;;;5110825;28;20655;-81
2021/07/01 10:58:37;;;;;;;8.40;3.38;;;;;22.00;101377.00;;;;5108585;28;20229;-81
2021/07/01 11:01:06;;;;;;;5.15;3.33;;;;;22.10;101379.00;;;;5090077;28;20214;-81
2021/07/01 11:03:35;;;;;;;7.60;3.58;;;;;22.10;101373.00;;;;5089721;28;20676;-82
2021/07/01 11:06:04;;;;;;;4.15;2.83;;;;;22.10;101373.00;;;;5089644;28;20202;-81
2021/07/01 11:08:32;;;;;;;5.47;3.10;;;;;22.10;101371.00;;;;5089599;28;20198;-82
2021/07/01 11:11:02;;;;;;;5.93;2.85;;;;;22.10;101377.00;;;;5090022;28;20199;-81
2021/07/01 11:13:30;;;;;;;5.18;2.80;;;;;22.20;101375.00;;;;5089754;28;20676;-81
2021/07/01 11:16:09;;;;;;;5.50;2.92;;;;;22.10;101373.00;;;;5099013;28;20194;-81
2021/07/01 11:18:41;;;;;;;7.68;3.35;;;;;22.20;101373.00;;;;5089013;28;20225;-81
2021/07/01 11:21:11;;;;;;;7.00;2.97;;;;;22.20;101377.00;;;;5089894;28;20445;-82
2021/07/01 11:23:39;;;;;;;9.00;3.28;;;;;22.20;101377.00;;;;5089523;28;20199;-81
2021/07/01 11:26:26;;;;;;;7.72;2.92;;;;;22.10;101385.00;;;;5090133;28;20198;-81
2021/07/01 11:28:54;;;;;;;7.90;3.05;;;;;22.30;101378.00;;;;5089585;28;20186;-82
2021/07/01 11:31:35;;;;;;;11.70;3.28;;;;;22.20;101388.00;;;;5089663;28;20198;-81
2021/07/01 11:34:12;;;;;;;7.25;3.03;;;;;22.30;101383.00;;;;5147599;27;20378;-80
2021/07/01 11:36:41;;;;;;;8.77;3.75;;;;;22.30;101393.00;;;;5126752;28;20189;-80
2021/07/01 11:39:11;;;;;;;8.85;3.17;;;;;22.30;101386.00;;;;5126209;28;20564;-80
2021/07/01 11:41:39;;;;;;;7.57;3.50;;;;;22.40;101384.00;;;;5126062;27;20185;-80
2021/07/01 11:44:08;;;;;;;10.13;3.83;;;;;22.40;101383.00;;;;5126041;28;20196;-79
2021/07/01 11:46:36;;;;;;;8.85;3.58;;;;;22.40;101388.00;;;;5126336;28;20289;-80
2021/07/01 11:49:06;;;;;;;5.63;3.47;;;;;22.40;101385.00;;;;5121626;28;20217;-80
2021/07/01 11:51:35;;;;;;;7.00;2.95;;;;;22.40;101382.00;;;;5105600;28;20204;-80
2021/07/01 11:54:03;;;;;;;8.70;4.10;;;;;22.50;101387.00;;;;5105579;28;20228;-80
2021/07/01 11:56:53;;;;;;;8.82;2.97;;;;;22.50;101387.00;;;;5105659;28;20198;-80
2021/07/01 11:59:18;;;;;;;5.40;3.28;;;;;22.50;101389.00;;;;5112200;28;20192;-80
2021/07/01 12:01:46;;;;;;;7.60;3.25;;;;;22.50;101394.00;;;;5106427;28;20751;-79
2021/07/01 12:04:14;;;;;;;8.90;2.60;;;;;22.60;101402.00;;;;5104875;28;20205;-79
2021/07/01 12:06:53;;;;;;;14.85;4.13;;;;;22.50;101397.00;;;;5095103;28;20214;-79
2021/07/01 12:09:21;;;;;;;10.38;4.00;;;;;22.60;101394.00;;;;5085618;28;20206;-80
2021/07/01 12:12:11;;;;;;;8.02;3.42;;;;;22.50;101399.00;;;;5085556;28;20213;-79
2021/07/01 12:14:39;;;;;;;10.18;3.75;;;;;22.60;101399.00;;;;5084703;28;20278;-80
2021/07/01 12:17:07;;;;;;;11.02;4.00;;;;;22.60;101401.00;;;;5085516;28;20195;-81